sensor_id;sensor_type;location;lat;lon;timestamp;pressure;altitude;pressure_sealevel;temperature;humidity
2000;BME280;1001;48.87406500;9.59633600;2023-08-06T00:01:31;94407.38;;;14.41;100.00
2000;BME280;1001;48.87406500;9.59633600;2023-08-06T00:03:58;94409.00;;;14.32;100.00
2000;BME280;1001;48.87406500;9.59633600;2023-08-06T00:06:25;94406.09;;;14.39;100.00
2000;BME280;1001;48.87406500;9.59633600;2023-08-06T00:08:53;94403.72;;;14.37;100.00
2000;BME280;1001;48.87406500;9.59633600;2023-08-06T00:11:20;94412.41;;;14.43;100.00
2000;BME280;1001;48.87406500;9.59633600;2023-08-06T00:13:47;94408.75;;;14.34;100.00
2000;BME280;1001;48.87406500;9.59633600;2023-08-06T00:16:14;94409.78;;;14.38;100.00
2000;BME280;1001;48.87406500;9.59633600;2023-08-06T00:18:40;94403.44;;;14.39;100.00
2000;BME280;1001;48.87406500;9.59633600;2023-08-06T00:21:07;94398.25;;;14.34;100.00
2000;BME280;1001;48.87406500;9.59633600;2023-08-06T00:23:33;94405.06;;;14.35;100.00
2000;BME280;1001;48.87406500;9.59633600;2023-08-06T00:26:01;94395.59;;;14.34;100.00
2000;BME280;1001;48.87406500;9.59633600;2023-08-06T00:28:28;94403.50;;;14.34;100.00
2000;BME280;1001;48.87406500;9.59633600;2023-08-06T00:30:55;94394.28;;;14.36;100.00
2000;BME280;1001;48.87406500;9.59633600;2023-08-06T00:33:22;94397.44;;;14.28;100.00
2000;BME280;1001;48.87406500;9.59633600;2023-08-06T00:35:49;94390.34;;;14.28;100.00
2000;BME280;1001;48.87406500;9.59633600;2023-08-06T00:38:16;94382.97;;;14.30;100.00
2000;BME280;1001;48.87406500;9.59633600;2023-08-06T00:40:42;94381.91;;;14.31;100.00
2000;BME280;1001;48.87406500;9.59633600;2023-08-06T00:43:11;94371.41;;;14.26;100.00
2000;BME280;1001;48.87406500;9.59633600;2023-08-06T00:45:38;94383.25;;;14.24;100.00
2000;BME280;1001;48.87406500;9.59633600;2023-08-06T00:48:05;94381.13;;;14.26;100.00
2000;BME280;1001;48.87406500;9.59633600;2023-08-06T00:50:32;94381.66;;;14.23;100.00
2000;BME280;1001;48.87406500;9.59633600;2023-08-06T00:52:59;94378.25;;;14.22;100.00
2000;BME280;1001;48.87406500;9.59633600;2023-08-06T00:55:26;94382.47;;;14.18;100.00
2000;BME280;1001;48.87406500;9.59633600;2023-08-06T00:57:53;94377.22;;;14.18;100.00
2000;BME280;1001;48.87406500;9.59633600;2023-08-06T01:00:24;94373.78;;;14.23;100.00
2000;BME280;1001;48.87406500;9.59633600;2023-08-06T01:02:51;94370.38;;;14.17;100.00
2000;BME280;1001;48.87406500;9.59633600;2023-08-06T01:05:18;94373.78;;;14.23;100.00
2000;BME280;1001;48.87406500;9.59633600;2023-08-06T01:07:51;94372.97;;;14.22;100.00
2000;BME280;1001;48.87406500;9.59633600;2023-08-06T01:10:30;94368.78;;;14.21;100.00
2000;BME280;1001;48.87406500;9.59633600;2023-08-06T01:13:06;94363.75;;;14.25;100.00
2000;BME280;1001;48.87406500;9.59633600;2023-08-06T01:15:41;94359.31;;;14.25;100.00
2000;BME280;1001;48.87406500;9.59633600;2023-08-06T01:18:08;94360.59;;;14.28;100.00
2000;BME280;1001;48.87406500;9.59633600;2023-08-06T01:20:36;94364.03;;;14.28;100.00
2000;BME280;1001;48.87406500;9.59633600;2023-08-06T01:23:03;94362.97;;;14.35;100.00
2000;BME280;1001;48.87406500;9.59633600;2023-08-06T01:25:33;94350.91;;;14.34;100.00
2000;BME280;1001;48.87406500;9.59633600;2023-08-06T01:28:06;94355.06;;;14.40;100.00
2000;BME280;1001;48.87406500;9.59633600;2023-08-06T01:30:37;94352.97;;;14.37;100.00
2000;BME280;1001;48.87406500;9.59633600;2023-08-06T01:33:09;94346.41;;;14.34;100.00
2000;BME280;1001;48.87406500;9.59633600;2023-08-06T01:35:40;94341.91;;;14.29;100.00
2000;BME280;1001;48.87406500;9.59633600;2023-08-06T01:38:08;94344.56;;;14.24;100.00
2000;BME280;1001;48.87406500;9.59633600;2023-08-06T01:40:35;94332.00;;;14.16;100.00
2000;BME280;1001;48.87406500;9.59633600;2023-08-06T01:43:02;94335.69;;;14.10;100.00
2000;BME280;1001;48.87406500;9.59633600;2023-08-06T01:45:28;94334.41;;;14.03;100.00
2000;BME280;1001;48.87406500;9.59633600;2023-08-06T01:47:55;94324.72;;;13.98;100.00
2000;BME280;1001;48.87406500;9.59633600;2023-08-06T01:50:21;94326.81;;;13.91;100.00
2000;BME280;1001;48.87406500;9.59633600;2023-08-06T01:52:50;94319.50;;;13.78;100.00
2000;BME280;1001;48.87406500;9.59633600;2023-08-06T01:55:16;94325.81;;;13.77;100.00
2000;BME280;1001;48.87406500;9.59633600;2023-08-06T01:57:43;94326.34;;;13.79;100.00
2000;BME280;1001;48.87406500;9.59633600;2023-08-06T02:00:11;94323.94;;;13.88;100.00
2000;BME280;1001;48.87406500;9.59633600;2023-08-06T02:02:38;94329.44;;;13.91;100.00
2000;BME280;1001;48.87406500;9.59633600;2023-08-06T02:05:06;94326.78;;;14.06;100.00
2000;BME280;1001;48.87406500;9.59633600;2023-08-06T02:07:33;94310.19;;;14.06;100.00
2000;BME280;1001;48.87406500;9.59633600;2023-08-06T02:10:01;94317.28;;;14.10;100.00
2000;BME280;1001;48.87406500;9.59633600;2023-08-06T02:12:27;94324.63;;;14.13;100.00
2000;BME280;1001;48.87406500;9.59633600;2023-08-06T02:14:54;94314.63;;;14.20;100.00
2000;BME280;1001;48.87406500;9.59633600;2023-08-06T02:17:21;94313.81;;;14.20;100.00
2000;BME280;1001;48.87406500;9.59633600;2023-08-06T02:19:47;94317.53;;;14.19;100.00
2000;BME280;1001;48.87406500;9.59633600;2023-08-06T02:22:14;94311.44;;;14.23;100.00
2000;BME280;1001;48.87406500;9.59633600;2023-08-06T02:24:41;94304.88;;;14.21;100.00
2000;BME280;1001;48.87406500;9.59633600;2023-08-06T02:27:09;94301.97;;;14.22;100.00
2000;BME280;1001;48.87406500;9.59633600;2023-08-06T02:29:35;94299.38;;;14.17;100.00
2000;BME280;1001;48.87406500;9.59633600;2023-08-06T02:32:02;94293.34;;;14.17;100.00
2000;BME280;1001;48.87406500;9.59633600;2023-08-06T02:34:29;94294.16;;;14.12;100.00
2000;BME280;1001;48.87406500;9.59633600;2023-08-06T02:36:55;94287.59;;;14.10;100.00
2000;BME280;1001;48.87406500;9.59633600;2023-08-06T02:39:22;94289.97;;;14.06;100.00
2000;BME280;1001;48.87406500;9.59633600;2023-08-06T02:41:48;94275.53;;;13.99;100.00
2000;BME280;1001;48.87406500;9.59633600;2023-08-06T02:44:16;94279.75;;;14.00;100.00
2000;BME280;1001;48.87406500;9.59633600;2023-08-06T02:46:44;94279.25;;;13.98;100.00
2000;BME280;1001;48.87406500;9.59633600;2023-08-06T02:49:11;94279.97;;;14.03;100.00
2000;BME280;1001;48.87406500;9.59633600;2023-08-06T02:51:37;94275.00;;;14.02;100.00
2000;BME280;1001;48.87406500;9.59633600;2023-08-06T02:54:04;94276.03;;;14.01;100.00
2000;BME280;1001;48.87406500;9.59633600;2023-08-06T02:56:30;94281.59;;;13.99;100.00
2000;BME280;1001;48.87406500;9.59633600;2023-08-06T02:58:57;94274.78;;;13.93;100.00
2000;BME280;1001;48.87406500;9.59633600;2023-08-06T03:01:25;94270.84;;;13.96;100.00
2000;BME280;1001;48.87406500;9.59633600;2023-08-06T03:03:52;94269.25;;;13.95;100.00
2000;BME280;1001;48.87406500;9.59633600;2023-08-06T03:06:19;94269.50;;;13.98;100.00
2000;BME280;1001;48.87406500;9.59633600;2023-08-06T03:08:45;94267.13;;;13.97;100.00
2000;BME280;1001;48.87406500;9.59633600;2023-08-06T03:11:12;94263.47;;;13.93;100.00
2000;BME280;1001;48.87406500;9.59633600;2023-08-06T03:13:38;94264.81;;;13.90;100.00
2000;BME280;1001;48.87406500;9.59633600;2023-08-06T03:16:05;94266.09;;;13.93;100.00
2000;BME280;1001;48.87406500;9.59633600;2023-08-06T03:18:33;94256.69;;;13.82;100.00
2000;BME280;1001;48.87406500;9.59633600;2023-08-06T03:21:00;94249.06;;;13.85;100.00
2000;BME280;1001;48.87406500;9.59633600;2023-08-06T03:23:26;94246.97;;;13.82;100.00
2000;BME280;1001;48.87406500;9.59633600;2023-08-06T03:25:53;94251.72;;;13.75;100.00
2000;BME280;1001;48.87406500;9.59633600;2023-08-06T03:28:20;94245.44;;;13.66;100.00
2000;BME280;1001;48.87406500;9.59633600;2023-08-06T03:30:47;94252.81;;;13.59;100.00
2000;BME280;1001;48.87406500;9.59633600;2023-08-06T03:33:14;94242.59;;;13.57;100.00
2000;BME280;1001;48.87406500;9.59633600;2023-08-06T03:35:42;94251.50;;;13.56;100.00
2000;BME280;1001;48.87406500;9.59633600;2023-08-06T03:38:09;94251.28;;;13.58;100.00
2000;BME280;1001;48.87406500;9.59633600;2023-08-06T03:40:35;94248.59;;;13.63;100.00
2000;BME280;1001;48.87406500;9.59633600;2023-08-06T03:43:02;94258.59;;;13.61;100.00
2000;BME280;1001;48.87406500;9.59633600;2023-08-06T03:45:28;94250.47;;;13.62;100.00
2000;BME280;1001;48.87406500;9.59633600;2023-08-06T03:47:55;94251.50;;;13.56;100.00
2000;BME280;1001;48.87406500;9.59633600;2023-08-06T03:50:22;94254.16;;;13.56;100.00
2000;BME280;1001;48.87406500;9.59633600;2023-08-06T03:52:50;94244.44;;;13.57;100.00
2000;BME280;1001;48.87406500;9.59633600;2023-08-06T03:55:16;94240.22;;;13.56;100.00
2000;BME280;1001;48.87406500;9.59633600;2023-08-06T03:57:43;94244.97;;;13.54;100.00
2000;BME280;1001;48.87406500;9.59633600;2023-08-06T04:00:10;94248.91;;;13.51;100.00
2000;BME280;1001;48.87406500;9.59633600;2023-08-06T04:02:37;94239.97;;;13.52;100.00
2000;BME280;1001;48.87406500;9.59633600;2023-08-06T04:05:04;94251.78;;;13.55;100.00
2000;BME280;1001;48.87406500;9.59633600;2023-08-06T04:07:31;94240.50;;;13.54;100.00
2000;BME280;1001;48.87406500;9.59633600;2023-08-06T04:10:01;94242.59;;;13.52;100.00
2000;BME280;1001;48.87406500;9.59633600;2023-08-06T04:12:28;94248.09;;;13.56;100.00
2000;BME280;1001;48.87406500;9.59633600;2023-08-06T04:14:56;94250.47;;;13.57;100.00
2000;BME280;1001;48.87406500;9.59633600;2023-08-06T04:17:24;94254.41;;;13.55;100.00
2000;BME280;1001;48.87406500;9.59633600;2023-08-06T04:19:52;94249.97;;;13.50;100.00
2000;BME280;1001;48.87406500;9.59633600;2023-08-06T04:22:19;94254.44;;;13.50;100.00
2000;BME280;1001;48.87406500;9.59633600;2023-08-06T04:24:46;94247.88;;;13.47;100.00
2000;BME280;1001;48.87406500;9.59633600;2023-08-06T04:27:15;94258.38;;;13.47;100.00
2000;BME280;1001;48.87406500;9.59633600;2023-08-06T04:29:42;94248.69;;;13.38;100.00
2000;BME280;1001;48.87406500;9.59633600;2023-08-06T04:32:09;94244.47;;;13.42;100.00
2000;BME280;1001;48.87406500;9.59633600;2023-08-06T04:34:37;94238.19;;;13.38;100.00
2000;BME280;1001;48.87406500;9.59633600;2023-08-06T04:37:04;94243.72;;;13.36;100.00
2000;BME280;1001;48.87406500;9.59633600;2023-08-06T04:39:31;94248.16;;;13.36;100.00
2000;BME280;1001;48.87406500;9.59633600;2023-08-06T04:41:57;94241.88;;;13.32;100.00
2000;BME280;1001;48.87406500;9.59633600;2023-08-06T04:44:25;94253.41;;;13.36;100.00
2000;BME280;1001;48.87406500;9.59633600;2023-08-06T04:46:52;94248.97;;;13.36;100.00
2000;BME280;1001;48.87406500;9.59633600;2023-08-06T04:49:20;94241.88;;;13.32;100.00
2000;BME280;1001;48.87406500;9.59633600;2023-08-06T04:51:47;94251.84;;;13.35;100.00
2000;BME280;1001;48.87406500;9.59633600;2023-08-06T04:54:13;94245.31;;;13.27;100.00
2000;BME280;1001;48.87406500;9.59633600;2023-08-06T04:56:40;94248.44;;;13.29;100.00
2000;BME280;1001;48.87406500;9.59633600;2023-08-06T04:59:06;94242.13;;;13.30;100.00
2000;BME280;1001;48.87406500;9.59633600;2023-08-06T05:01:35;94232.13;;;13.32;100.00
2000;BME280;1001;48.87406500;9.59633600;2023-08-06T05:04:01;94230.31;;;13.28;100.00
2000;BME280;1001;48.87406500;9.59633600;2023-08-06T05:06:28;94234.81;;;13.27;100.00
2000;BME280;1001;48.87406500;9.59633600;2023-08-06T05:08:54;94231.13;;;13.23;100.00
2000;BME280;1001;48.87406500;9.59633600;2023-08-06T05:11:21;94234.28;;;13.20;100.00
2000;BME280;1001;48.87406500;9.59633600;2023-08-06T05:13:49;94229.81;;;13.26;100.00
2000;BME280;1001;48.87406500;9.59633600;2023-08-06T05:16:16;94237.69;;;13.26;100.00
2000;BME280;1001;48.87406500;9.59633600;2023-08-06T05:18:43;94237.16;;;13.29;100.00
2000;BME280;1001;48.87406500;9.59633600;2023-08-06T05:21:10;94237.16;;;13.24;100.00
2000;BME280;1001;48.87406500;9.59633600;2023-08-06T05:23:37;94236.38;;;13.23;100.00
2000;BME280;1001;48.87406500;9.59633600;2023-08-06T05:26:03;94239.78;;;13.29;100.00
2000;BME280;1001;48.87406500;9.59633600;2023-08-06T05:28:30;94242.69;;;13.27;100.00
2000;BME280;1001;48.87406500;9.59633600;2023-08-06T05:30:56;94245.31;;;13.27;100.00
2000;BME280;1001;48.87406500;9.59633600;2023-08-06T05:33:24;94248.16;;;13.31;100.00
2000;BME280;1001;48.87406500;9.59633600;2023-08-06T05:35:52;94245.81;;;13.29;100.00
2000;BME280;1001;48.87406500;9.59633600;2023-08-06T05:38:18;94241.84;;;13.37;100.00
2000;BME280;1001;48.87406500;9.59633600;2023-08-06T05:40:45;94250.78;;;13.46;100.00
2000;BME280;1001;48.87406500;9.59633600;2023-08-06T05:43:11;94255.75;;;13.47;100.00
2000;BME280;1001;48.87406500;9.59633600;2023-08-06T05:45:38;94258.66;;;13.51;100.00
2000;BME280;1001;48.87406500;9.59633600;2023-08-06T05:48:05;94258.66;;;13.46;100.00
2000;BME280;1001;48.87406500;9.59633600;2023-08-06T05:50:31;94261.78;;;13.58;100.00
2000;BME280;1001;48.87406500;9.59633600;2023-08-06T05:52:59;94259.38;;;13.61;100.00
2000;BME280;1001;48.87406500;9.59633600;2023-08-06T05:55:26;94267.53;;;13.65;100.00
2000;BME280;1001;48.87406500;9.59633600;2023-08-06T05:57:53;94257.47;;;13.77;100.00
2000;BME280;1001;48.87406500;9.59633600;2023-08-06T06:00:20;94254.00;;;13.97;100.00
2000;BME280;1001;48.87406500;9.59633600;2023-08-06T06:02:47;94250.56;;;14.01;100.00
2000;BME280;1001;48.87406500;9.59633600;2023-08-06T06:05:14;94254.66;;;14.17;100.00
2000;BME280;1001;48.87406500;9.59633600;2023-08-06T06:07:40;94254.03;;;14.46;100.00
2000;BME280;1001;48.87406500;9.59633600;2023-08-06T06:10:09;94252.28;;;14.70;100.00
2000;BME280;1001;48.87406500;9.59633600;2023-08-06T06:12:38;94262.41;;;14.86;100.00
2000;BME280;1001;48.87406500;9.59633600;2023-08-06T06:15:05;94252.75;;;14.77;100.00
2000;BME280;1001;48.87406500;9.59633600;2023-08-06T06:17:33;94255.47;;;14.67;100.00
2000;BME280;1001;48.87406500;9.59633600;2023-08-06T06:19:59;94255.09;;;14.45;100.00
2000;BME280;1001;48.87406500;9.59633600;2023-08-06T06:22:26;94249.13;;;14.24;100.00
2000;BME280;1001;48.87406500;9.59633600;2023-08-06T06:24:53;94253.66;;;14.08;100.00
2000;BME280;1001;48.87406500;9.59633600;2023-08-06T06:27:21;94258.19;;;14.03;100.00
2000;BME280;1001;48.87406500;9.59633600;2023-08-06T06:29:48;94252.97;;;13.93;100.00
2000;BME280;1001;48.87406500;9.59633600;2023-08-06T06:32:15;94254.53;;;13.94;100.00
2000;BME280;1001;48.87406500;9.59633600;2023-08-06T06:34:41;94257.91;;;14.04;100.00
2000;BME280;1001;48.87406500;9.59633600;2023-08-06T06:37:08;94263.69;;;14.06;100.00
2000;BME280;1001;48.87406500;9.59633600;2023-08-06T06:39:35;94259.22;;;14.02;100.00
2000;BME280;1001;48.87406500;9.59633600;2023-08-06T06:42:01;94264.28;;;13.93;100.00
2000;BME280;1001;48.87406500;9.59633600;2023-08-06T06:44:29;94267.94;;;13.92;100.00
2000;BME280;1001;48.87406500;9.59633600;2023-08-06T06:46:56;94268.44;;;13.99;100.00
2000;BME280;1001;48.87406500;9.59633600;2023-08-06T06:49:22;94262.38;;;13.99;100.00
2000;BME280;1001;48.87406500;9.59633600;2023-08-06T06:51:49;94266.88;;;13.98;100.00
2000;BME280;1001;48.87406500;9.59633600;2023-08-06T06:54:16;94255.84;;;13.91;100.00
2000;BME280;1001;48.87406500;9.59633600;2023-08-06T06:56:42;94264.84;;;13.80;100.00
2000;BME280;1001;48.87406500;9.59633600;2023-08-06T06:59:09;94265.66;;;13.71;100.00
2000;BME280;1001;48.87406500;9.59633600;2023-08-06T07:01:37;94263.59;;;13.57;100.00
2000;BME280;1001;48.87406500;9.59633600;2023-08-06T07:04:04;94271.22;;;13.49;100.00
2000;BME280;1001;48.87406500;9.59633600;2023-08-06T07:06:30;94272.81;;;13.55;100.00
2000;BME280;1001;48.87406500;9.59633600;2023-08-06T07:08:57;94275.94;;;13.57;100.00
2000;BME280;1001;48.87406500;9.59633600;2023-08-06T07:11:24;94272.28;;;13.58;100.00
2000;BME280;1001;48.87406500;9.59633600;2023-08-06T07:13:56;94262.22;;;13.70;100.00
2000;BME280;1001;48.87406500;9.59633600;2023-08-06T07:16:23;94267.75;;;13.74;100.00
2000;BME280;1001;48.87406500;9.59633600;2023-08-06T07:18:54;94260.91;;;13.73;100.00
2000;BME280;1001;48.87406500;9.59633600;2023-08-06T07:21:21;94254.63;;;13.69;100.00
2000;BME280;1001;48.87406500;9.59633600;2023-08-06T07:23:47;94269.88;;;13.72;100.00
2000;BME280;1001;48.87406500;9.59633600;2023-08-06T07:26:15;94274.03;;;13.78;100.00
2000;BME280;1001;48.87406500;9.59633600;2023-08-06T07:28:42;94268.22;;;13.91;100.00
2000;BME280;1001;48.87406500;9.59633600;2023-08-06T07:31:09;94269.06;;;13.81;100.00
2000;BME280;1001;48.87406500;9.59633600;2023-08-06T07:33:36;94275.88;;;13.82;100.00
2000;BME280;1001;48.87406500;9.59633600;2023-08-06T07:36:09;94279.56;;;13.76;100.00
2000;BME280;1001;48.87406500;9.59633600;2023-08-06T07:38:36;94284.03;;;13.76;100.00
2000;BME280;1001;48.87406500;9.59633600;2023-08-06T07:41:03;94280.91;;;13.74;100.00
2000;BME280;1001;48.87406500;9.59633600;2023-08-06T07:43:29;94278.56;;;13.67;100.00
2000;BME280;1001;48.87406500;9.59633600;2023-08-06T07:45:58;94272.22;;;13.78;100.00
2000;BME280;1001;48.87406500;9.59633600;2023-08-06T07:48:25;94267.22;;;13.77;100.00
2000;BME280;1001;48.87406500;9.59633600;2023-08-06T07:50:52;94263.28;;;13.74;100.00
2000;BME280;1001;48.87406500;9.59633600;2023-08-06T07:53:20;94270.13;;;13.70;100.00
2000;BME280;1001;48.87406500;9.59633600;2023-08-06T07:55:50;94273.03;;;13.63;100.00
2000;BME280;1001;48.87406500;9.59633600;2023-08-06T07:58:17;94268.31;;;13.60;100.00
2000;BME280;1001;48.87406500;9.59633600;2023-08-06T08:00:44;94275.66;;;13.58;100.00
2000;BME280;1001;48.87406500;9.59633600;2023-08-06T08:03:11;94271.47;;;13.62;100.00
2000;BME280;1001;48.87406500;9.59633600;2023-08-06T08:05:38;94280.69;;;13.55;100.00
2000;BME280;1001;48.87406500;9.59633600;2023-08-06T08:08:05;94277.75;;;13.67;100.00
2000;BME280;1001;48.87406500;9.59633600;2023-08-06T08:10:34;94284.38;;;13.49;100.00
2000;BME280;1001;48.87406500;9.59633600;2023-08-06T08:13:01;94272.81;;;13.50;100.00
2000;BME280;1001;48.87406500;9.59633600;2023-08-06T08:15:30;94267.59;;;13.40;100.00
2000;BME280;1001;48.87406500;9.59633600;2023-08-06T08:17:57;94275.47;;;13.35;100.00
2000;BME280;1001;48.87406500;9.59633600;2023-08-06T08:20:23;94274.94;;;13.43;100.00
2000;BME280;1001;48.87406500;9.59633600;2023-08-06T08:22:50;94280.97;;;13.48;100.00
2000;BME280;1001;48.87406500;9.59633600;2023-08-06T08:25:17;94271.78;;;13.41;100.00
2000;BME280;1001;48.87406500;9.59633600;2023-08-06T08:27:45;94276.53;;;13.44;100.00
2000;BME280;1001;48.87406500;9.59633600;2023-08-06T08:30:11;94278.59;;;13.42;100.00
2000;BME280;1001;48.87406500;9.59633600;2023-08-06T08:32:38;94276.53;;;13.39;100.00
2000;BME280;1001;48.87406500;9.59633600;2023-08-06T08:35:05;94278.34;;;13.43;100.00
2000;BME280;1001;48.87406500;9.59633600;2023-08-06T08:37:31;94273.63;;;13.45;100.00
2000;BME280;1001;48.87406500;9.59633600;2023-08-06T08:39:58;94276.22;;;13.55;100.00
2000;BME280;1001;48.87406500;9.59633600;2023-08-06T08:42:26;94273.34;;;13.52;100.00
2000;BME280;1001;48.87406500;9.59633600;2023-08-06T08:44:54;94273.59;;;13.55;100.00
2000;BME280;1001;48.87406500;9.59633600;2023-08-06T08:47:22;94275.44;;;13.55;100.00
2000;BME280;1001;48.87406500;9.59633600;2023-08-06T08:49:52;94272.50;;;13.72;100.00
2000;BME280;1001;48.87406500;9.59633600;2023-08-06T08:52:21;94274.53;;;13.90;100.00
2000;BME280;1001;48.87406500;9.59633600;2023-08-06T08:54:49;94276.59;;;14.03;100.00
2000;BME280;1001;48.87406500;9.59633600;2023-08-06T08:57:18;94276.28;;;14.09;100.00
2000;BME280;1001;48.87406500;9.59633600;2023-08-06T08:59:45;94275.25;;;14.05;100.00
2000;BME280;1001;48.87406500;9.59633600;2023-08-06T09:02:13;94278.63;;;14.11;100.00
2000;BME280;1001;48.87406500;9.59633600;2023-08-06T09:04:42;94280.44;;;14.20;100.00
2000;BME280;1001;48.87406500;9.59633600;2023-08-06T09:07:13;94282.84;;;14.12;100.00
2000;BME280;1001;48.87406500;9.59633600;2023-08-06T09:09:43;94283.38;;;14.14;100.00
2000;BME280;1001;48.87406500;9.59633600;2023-08-06T09:12:12;94277.56;;;14.17;100.00
2000;BME280;1001;48.87406500;9.59633600;2023-08-06T09:14:40;94289.59;;;14.28;100.00
2000;BME280;1001;48.87406500;9.59633600;2023-08-06T09:17:07;94290.16;;;14.20;100.00
2000;BME280;1001;48.87406500;9.59633600;2023-08-06T09:19:37;94281.25;;;14.16;100.00
2000;BME280;1001;48.87406500;9.59633600;2023-08-06T09:22:03;94286.53;;;14.06;100.00
2000;BME280;1001;48.87406500;9.59633600;2023-08-06T09:24:38;94281.38;;;13.91;100.00
2000;BME280;1001;48.87406500;9.59633600;2023-08-06T09:27:05;94278.44;;;14.02;100.00
2000;BME280;1001;48.87406500;9.59633600;2023-08-06T09:29:31;94283.19;;;13.90;100.00
2000;BME280;1001;48.87406500;9.59633600;2023-08-06T09:31:58;94279.28;;;13.88;100.00
2000;BME280;1001;48.87406500;9.59633600;2023-08-06T09:34:25;94281.63;;;13.89;100.00
2000;BME280;1001;48.87406500;9.59633600;2023-08-06T09:36:54;94279.00;;;13.89;100.00
2000;BME280;1001;48.87406500;9.59633600;2023-08-06T09:39:26;94289.28;;;13.76;100.00
2000;BME280;1001;48.87406500;9.59633600;2023-08-06T09:41:56;94283.53;;;13.69;100.00
2000;BME280;1001;48.87406500;9.59633600;2023-08-06T09:44:25;94291.91;;;13.76;100.00
2000;BME280;1001;48.87406500;9.59633600;2023-08-06T09:46:53;94285.63;;;13.72;100.00
2000;BME280;1001;48.87406500;9.59633600;2023-08-06T09:49:24;94296.16;;;13.61;100.00
2000;BME280;1001;48.87406500;9.59633600;2023-08-06T09:51:53;94291.91;;;13.76;100.00
2000;BME280;1001;48.87406500;9.59633600;2023-08-06T09:54:22;94290.06;;;13.86;100.00
2000;BME280;1001;48.87406500;9.59633600;2023-08-06T09:56:49;94293.19;;;13.88;100.00
2000;BME280;1001;48.87406500;9.59633600;2023-08-06T09:59:17;94295.88;;;13.73;100.00
2000;BME280;1001;48.87406500;9.59633600;2023-08-06T10:01:45;94307.13;;;13.89;100.00
2000;BME280;1001;48.87406500;9.59633600;2023-08-06T10:04:14;94306.03;;;14.00;100.00
2000;BME280;1001;48.87406500;9.59633600;2023-08-06T10:06:42;94308.69;;;13.95;100.00
2000;BME280;1001;48.87406500;9.59633600;2023-08-06T10:09:10;94308.97;;;13.88;100.00
2000;BME280;1001;48.87406500;9.59633600;2023-08-06T10:11:37;94304.75;;;13.87;100.00
2000;BME280;1001;48.87406500;9.59633600;2023-08-06T10:14:08;94310.78;;;13.93;100.00
2000;BME280;1001;48.87406500;9.59633600;2023-08-06T10:16:36;94308.97;;;13.83;100.00
2000;BME280;1001;48.87406500;9.59633600;2023-08-06T10:19:04;94303.16;;;13.91;100.00
2000;BME280;1001;48.87406500;9.59633600;2023-08-06T10:21:31;94306.56;;;13.92;100.00
2000;BME280;1001;48.87406500;9.59633600;2023-08-06T10:23:58;94299.16;;;14.09;100.00
2000;BME280;1001;48.87406500;9.59633600;2023-08-06T10:26:28;94307.25;;;14.22;100.00
2000;BME280;1001;48.87406500;9.59633600;2023-08-06T10:28:55;94304.88;;;14.31;100.00
2000;BME280;1001;48.87406500;9.59633600;2023-08-06T10:34:53;94312.09;;;13.95;100.00
2000;BME280;1001;48.87406500;9.59633600;2023-08-06T10:37:20;94306.31;;;13.93;100.00
2000;BME280;1001;48.87406500;9.59633600;2023-08-06T10:39:48;94307.91;;;13.89;100.00
2000;BME280;1001;48.87406500;9.59633600;2023-08-06T10:42:21;94307.81;;;14.14;100.00
2000;BME280;1001;48.87406500;9.59633600;2023-08-06T10:45:13;94307.25;;;14.22;100.00
2000;BME280;1001;48.87406500;9.59633600;2023-08-06T10:47:41;94310.38;;;14.24;100.00
2000;BME280;1001;48.87406500;9.59633600;2023-08-06T10:50:11;94304.88;;;14.31;100.00
2000;BME280;1001;48.87406500;9.59633600;2023-08-06T10:52:38;94307.25;;;14.22;100.00
2000;BME280;1001;48.87406500;9.59633600;2023-08-06T10:55:05;94295.69;;;14.23;100.00
2000;BME280;1001;48.87406500;9.59633600;2023-08-06T10:57:33;94299.84;;;14.35;100.00
2000;BME280;1001;48.87406500;9.59633600;2023-08-06T11:00:00;94294.06;;;14.38;100.00
2000;BME280;1001;48.87406500;9.59633600;2023-08-06T11:02:28;94300.66;;;14.30;100.00
2000;BME280;1001;48.87406500;9.59633600;2023-08-06T11:04:54;94304.63;;;14.17;100.00
2000;BME280;1001;48.87406500;9.59633600;2023-08-06T11:07:21;94304.19;;;14.05;100.00
2000;BME280;1001;48.87406500;9.59633600;2023-08-06T11:09:50;94300.75;;;14.10;100.00
2000;BME280;1001;48.87406500;9.59633600;2023-08-06T11:12:18;94309.94;;;14.07;100.00
2000;BME280;1001;48.87406500;9.59633600;2023-08-06T11:14:50;94310.69;;;14.13;100.00
2000;BME280;1001;48.87406500;9.59633600;2023-08-06T11:17:17;94308.88;;;14.08;100.00
2000;BME280;1001;48.87406500;9.59633600;2023-08-06T11:19:44;94313.13;;;14.04;100.00
2000;BME280;1001;48.87406500;9.59633600;2023-08-06T11:22:11;94311.09;;;13.86;100.00
2000;BME280;1001;48.87406500;9.59633600;2023-08-06T11:24:37;94310.81;;;13.78;100.00
2000;BME280;1001;48.87406500;9.59633600;2023-08-06T11:27:11;94313.72;;;13.86;100.00
2000;BME280;1001;48.87406500;9.59633600;2023-08-06T11:29:38;94317.34;;;14.00;100.00
2000;BME280;1001;48.87406500;9.59633600;2023-08-06T11:32:06;94330.28;;;13.82;100.00
2000;BME280;1001;48.87406500;9.59633600;2023-08-06T11:34:33;94330.03;;;13.73;100.00
2000;BME280;1001;48.87406500;9.59633600;2023-08-06T11:37:00;94328.72;;;13.71;100.00
2000;BME280;1001;48.87406500;9.59633600;2023-08-06T11:39:27;94335.31;;;13.58;100.00
2000;BME280;1001;48.87406500;9.59633600;2023-08-06T11:41:53;94346.88;;;13.37;100.00